sensor_id;sensor_type;location;lat;lon;timestamp;P1;durP1;ratioP1;P2;durP2;ratioP2
29196;SDS011;62796;42.654;23.316;2023-05-10T00:00:33;11.35;;;6.78;;
29196;SDS011;62796;42.654;23.316;2023-05-10T00:02:58;9.60;;;7.18;;
29196;SDS011;62796;42.654;23.316;2023-05-10T00:05:23;9.43;;;7.25;;
29196;SDS011;62796;42.654;23.316;2023-05-10T00:07:49;9.65;;;7.05;;
29196;SDS011;62796;42.654;23.316;2023-05-10T00:10:14;9.88;;;7.22;;
29196;SDS011;62796;42.654;23.316;2023-05-10T00:12:40;8.38;;;7.05;;
29196;SDS011;62796;42.654;23.316;2023-05-10T00:15:05;9.57;;;7.53;;
29196;SDS011;62796;42.654;23.316;2023-05-10T00:17:32;8.18;;;6.85;;
29196;SDS011;62796;42.654;23.316;2023-05-10T00:19:57;9.90;;;7.13;;
29196;SDS011;62796;42.654;23.316;2023-05-10T00:22:23;7.93;;;6.95;;
29196;SDS011;62796;42.654;23.316;2023-05-10T00:24:48;9.02;;;6.90;;
29196;SDS011;62796;42.654;23.316;2023-05-10T00:27:14;8.07;;;6.85;;
29196;SDS011;62796;42.654;23.316;2023-05-10T00:29:39;7.50;;;6.72;;
29196;SDS011;62796;42.654;23.316;2023-05-10T00:32:05;7.60;;;6.80;;
29196;SDS011;62796;42.654;23.316;2023-05-10T00:34:30;9.65;;;7.65;;
29196;SDS011;62796;42.654;23.316;2023-05-10T00:36:56;11.95;;;7.60;;
29196;SDS011;62796;42.654;23.316;2023-05-10T00:39:22;8.77;;;7.85;;
29196;SDS011;62796;42.654;23.316;2023-05-10T00:41:47;9.82;;;7.28;;
29196;SDS011;62796;42.654;23.316;2023-05-10T00:44:12;8.57;;;7.65;;
29196;SDS011;62796;42.654;23.316;2023-05-10T00:46:38;9.15;;;7.25;;
29196;SDS011;62796;42.654;23.316;2023-05-10T00:49:03;9.88;;;7.65;;
29196;SDS011;62796;42.654;23.316;2023-05-10T00:51:29;8.85;;;7.95;;
29196;SDS011;62796;42.654;23.316;2023-05-10T00:53:56;10.15;;;7.57;;
29196;SDS011;62796;42.654;23.316;2023-05-10T00:56:22;9.48;;;8.23;;
29196;SDS011;62796;42.654;23.316;2023-05-10T00:58:49;8.25;;;7.35;;
29196;SDS011;62796;42.654;23.316;2023-05-10T01:01:15;8.90;;;7.50;;
29196;SDS011;62796;42.654;23.316;2023-05-10T01:03:41;9.15;;;7.68;;
29196;SDS011;62796;42.654;23.316;2023-05-10T01:06:06;10.32;;;7.43;;
29196;SDS011;62796;42.654;23.316;2023-05-10T01:08:32;8.68;;;7.78;;
29196;SDS011;62796;42.654;23.316;2023-05-10T01:10:58;10.23;;;7.75;;
29196;SDS011;62796;42.654;23.316;2023-05-10T01:13:32;9.90;;;7.47;;
29196;SDS011;62796;42.654;23.316;2023-05-10T01:16:01;8.68;;;7.78;;
29196;SDS011;62796;42.654;23.316;2023-05-10T01:18:29;13.73;;;8.10;;
29196;SDS011;62796;42.654;23.316;2023-05-10T01:28:51;8.88;;;7.57;;
29196;SDS011;62796;42.654;23.316;2023-05-10T01:31:26;8.63;;;7.35;;
29196;SDS011;62796;42.654;23.316;2023-05-10T01:39:21;8.25;;;6.82;;
29196;SDS011;62796;42.654;23.316;2023-05-10T01:41:52;9.02;;;6.35;;
29196;SDS011;62796;42.654;23.316;2023-05-10T01:44:26;7.97;;;5.53;;
29196;SDS011;62796;42.654;23.316;2023-05-10T01:46:57;6.68;;;6.05;;
29196;SDS011;62796;42.654;23.316;2023-05-10T01:49:43;6.20;;;5.60;;
29196;SDS011;62796;42.654;23.316;2023-05-10T01:52:13;6.07;;;5.47;;
29196;SDS011;62796;42.654;23.316;2023-05-10T01:54:43;6.18;;;5.05;;
29196;SDS011;62796;42.654;23.316;2023-05-10T01:57:14;6.15;;;5.55;;
29196;SDS011;62796;42.654;23.316;2023-05-10T01:59:43;6.80;;;5.95;;
29196;SDS011;62796;42.654;23.316;2023-05-10T02:02:10;7.20;;;5.70;;
29196;SDS011;62796;42.654;23.316;2023-05-10T02:04:38;6.95;;;6.20;;
29196;SDS011;62796;42.654;23.316;2023-05-10T02:07:05;7.88;;;6.07;;
29196;SDS011;62796;42.654;23.316;2023-05-10T02:09:32;6.72;;;5.22;;
29196;SDS011;62796;42.654;23.316;2023-05-10T02:11:59;7.38;;;5.97;;
29196;SDS011;62796;42.654;23.316;2023-05-10T02:14:29;5.60;;;5.03;;
29196;SDS011;62796;42.654;23.316;2023-05-10T02:16:57;8.73;;;5.72;;
29196;SDS011;62796;42.654;23.316;2023-05-10T02:19:25;6.47;;;5.88;;
29196;SDS011;62796;42.654;23.316;2023-05-10T02:21:52;8.07;;;5.63;;
29196;SDS011;62796;42.654;23.316;2023-05-10T02:24:20;6.43;;;5.47;;
29196;SDS011;62796;42.654;23.316;2023-05-10T02:26:48;6.50;;;5.63;;
29196;SDS011;62796;42.654;23.316;2023-05-10T02:29:16;6.55;;;5.05;;
29196;SDS011;62796;42.654;23.316;2023-05-10T02:31:43;7.32;;;6.18;;
29196;SDS011;62796;42.654;23.316;2023-05-10T02:34:10;8.02;;;5.50;;
29196;SDS011;62796;42.654;23.316;2023-05-10T02:36:37;10.15;;;5.20;;
29196;SDS011;62796;42.654;23.316;2023-05-10T02:39:05;8.20;;;5.88;;
29196;SDS011;62796;42.654;23.316;2023-05-10T02:41:34;7.28;;;5.68;;
29196;SDS011;62796;42.654;23.316;2023-05-10T02:44:02;8.93;;;5.75;;
29196;SDS011;62796;42.654;23.316;2023-05-10T02:46:31;6.97;;;5.68;;
29196;SDS011;62796;42.654;23.316;2023-05-10T02:48:57;7.65;;;5.88;;
29196;SDS011;62796;42.654;23.316;2023-05-10T02:51:24;11.15;;;5.70;;
29196;SDS011;62796;42.654;23.316;2023-05-10T02:53:53;7.85;;;5.78;;
29196;SDS011;62796;42.654;23.316;2023-05-10T02:56:40;8.55;;;5.95;;
29196;SDS011;62796;42.654;23.316;2023-05-10T02:59:12;8.82;;;6.07;;
29196;SDS011;62796;42.654;23.316;2023-05-10T03:01:38;8.30;;;5.78;;
29196;SDS011;62796;42.654;23.316;2023-05-10T03:04:03;10.05;;;6.50;;
29196;SDS011;62796;42.654;23.316;2023-05-10T03:06:29;9.85;;;6.25;;
29196;SDS011;62796;42.654;23.316;2023-05-10T03:08:54;9.55;;;6.25;;
29196;SDS011;62796;42.654;23.316;2023-05-10T03:11:28;11.45;;;6.65;;
29196;SDS011;62796;42.654;23.316;2023-05-10T03:16:44;9.75;;;6.47;;
29196;SDS011;62796;42.654;23.316;2023-05-10T03:19:22;8.10;;;6.57;;
29196;SDS011;62796;42.654;23.316;2023-05-10T03:21:52;9.00;;;6.82;;
29196;SDS011;62796;42.654;23.316;2023-05-10T03:24:20;9.70;;;6.93;;
29196;SDS011;62796;42.654;23.316;2023-05-10T03:26:48;10.88;;;7.05;;
29196;SDS011;62796;42.654;23.316;2023-05-10T03:29:15;9.23;;;6.55;;
29196;SDS011;62796;42.654;23.316;2023-05-10T03:31:41;10.07;;;6.85;;
29196;SDS011;62796;42.654;23.316;2023-05-10T03:34:07;7.70;;;6.40;;
29196;SDS011;62796;42.654;23.316;2023-05-10T03:36:32;8.85;;;6.97;;
29196;SDS011;62796;42.654;23.316;2023-05-10T03:38:58;9.85;;;6.90;;
29196;SDS011;62796;42.654;23.316;2023-05-10T03:41:24;12.70;;;6.63;;
29196;SDS011;62796;42.654;23.316;2023-05-10T03:43:50;8.85;;;6.22;;
29196;SDS011;62796;42.654;23.316;2023-05-10T03:46:16;10.65;;;6.55;;
29196;SDS011;62796;42.654;23.316;2023-05-10T03:48:41;11.52;;;6.45;;
29196;SDS011;62796;42.654;23.316;2023-05-10T03:51:07;8.05;;;5.95;;
29196;SDS011;62796;42.654;23.316;2023-05-10T03:53:32;9.27;;;6.55;;
29196;SDS011;62796;42.654;23.316;2023-05-10T03:55:58;9.88;;;6.43;;
29196;SDS011;62796;42.654;23.316;2023-05-10T03:58:23;12.98;;;6.05;;
29196;SDS011;62796;42.654;23.316;2023-05-10T04:00:48;7.28;;;5.35;;
29196;SDS011;62796;42.654;23.316;2023-05-10T04:03:14;8.60;;;5.90;;
29196;SDS011;62796;42.654;23.316;2023-05-10T04:05:39;12.73;;;6.10;;
29196;SDS011;62796;42.654;23.316;2023-05-10T04:08:05;7.28;;;6.00;;
29196;SDS011;62796;42.654;23.316;2023-05-10T04:10:30;8.18;;;5.72;;
29196;SDS011;62796;42.654;23.316;2023-05-10T04:12:56;8.10;;;6.20;;
29196;SDS011;62796;42.654;23.316;2023-05-10T04:15:22;7.70;;;6.22;;
29196;SDS011;62796;42.654;23.316;2023-05-10T04:17:47;8.65;;;5.88;;
29196;SDS011;62796;42.654;23.316;2023-05-10T04:20:13;10.88;;;6.68;;
29196;SDS011;62796;42.654;23.316;2023-05-10T04:22:39;8.43;;;6.05;;
29196;SDS011;62796;42.654;23.316;2023-05-10T04:25:04;9.88;;;5.93;;
29196;SDS011;62796;42.654;23.316;2023-05-10T04:27:31;7.85;;;6.00;;
29196;SDS011;62796;42.654;23.316;2023-05-10T04:29:56;11.02;;;6.50;;
29196;SDS011;62796;42.654;23.316;2023-05-10T04:32:22;10.35;;;6.50;;
29196;SDS011;62796;42.654;23.316;2023-05-10T04:34:48;6.80;;;5.50;;
29196;SDS011;62796;42.654;23.316;2023-05-10T04:37:13;8.55;;;5.95;;
29196;SDS011;62796;42.654;23.316;2023-05-10T04:39:39;9.05;;;6.25;;
29196;SDS011;62796;42.654;23.316;2023-05-10T04:42:04;9.63;;;6.78;;
29196;SDS011;62796;42.654;23.316;2023-05-10T04:44:31;7.88;;;6.28;;
29196;SDS011;62796;42.654;23.316;2023-05-10T04:46:56;11.50;;;6.45;;
29196;SDS011;62796;42.654;23.316;2023-05-10T04:49:22;9.70;;;6.25;;
29196;SDS011;62796;42.654;23.316;2023-05-10T04:51:47;8.55;;;6.40;;
29196;SDS011;62796;42.654;23.316;2023-05-10T04:54:13;10.52;;;6.13;;
29196;SDS011;62796;42.654;23.316;2023-05-10T04:56:38;8.05;;;5.72;;
29196;SDS011;62796;42.654;23.316;2023-05-10T04:59:04;8.27;;;6.38;;
29196;SDS011;62796;42.654;23.316;2023-05-10T05:01:29;7.18;;;6.00;;
29196;SDS011;62796;42.654;23.316;2023-05-10T05:03:55;9.13;;;6.30;;
29196;SDS011;62796;42.654;23.316;2023-05-10T05:06:20;12.27;;;6.40;;
29196;SDS011;62796;42.654;23.316;2023-05-10T05:08:46;8.63;;;6.38;;
29196;SDS011;62796;42.654;23.316;2023-05-10T05:11:11;9.20;;;6.28;;
29196;SDS011;62796;42.654;23.316;2023-05-10T05:13:37;8.93;;;6.78;;
29196;SDS011;62796;42.654;23.316;2023-05-10T05:16:02;8.02;;;6.80;;
29196;SDS011;62796;42.654;23.316;2023-05-10T05:18:28;11.07;;;7.40;;
29196;SDS011;62796;42.654;23.316;2023-05-10T05:20:54;12.13;;;7.50;;
29196;SDS011;62796;42.654;23.316;2023-05-10T05:23:19;10.82;;;7.07;;
29196;SDS011;62796;42.654;23.316;2023-05-10T05:25:45;9.48;;;6.97;;
29196;SDS011;62796;42.654;23.316;2023-05-10T05:28:11;12.65;;;7.53;;
29196;SDS011;62796;42.654;23.316;2023-05-10T05:30:37;8.38;;;7.15;;
29196;SDS011;62796;42.654;23.316;2023-05-10T05:33:02;10.18;;;7.13;;
29196;SDS011;62796;42.654;23.316;2023-05-10T05:35:28;10.40;;;8.18;;
29196;SDS011;62796;42.654;23.316;2023-05-10T05:37:53;10.23;;;8.13;;
29196;SDS011;62796;42.654;23.316;2023-05-10T05:40:19;13.90;;;8.35;;
29196;SDS011;62796;42.654;23.316;2023-05-10T05:42:45;10.50;;;7.97;;
29196;SDS011;62796;42.654;23.316;2023-05-10T05:45:11;10.38;;;7.63;;
29196;SDS011;62796;42.654;23.316;2023-05-10T05:47:38;13.80;;;8.77;;
29196;SDS011;62796;42.654;23.316;2023-05-10T05:50:04;11.20;;;8.60;;
29196;SDS011;62796;42.654;23.316;2023-05-10T05:52:30;11.85;;;8.38;;
29196;SDS011;62796;42.654;23.316;2023-05-10T05:54:56;14.07;;;9.77;;
29196;SDS011;62796;42.654;23.316;2023-05-10T05:57:21;11.73;;;8.32;;
29196;SDS011;62796;42.654;23.316;2023-05-10T05:59:47;13.27;;;9.43;;
29196;SDS011;62796;42.654;23.316;2023-05-10T06:02:13;13.25;;;8.95;;
29196;SDS011;62796;42.654;23.316;2023-05-10T06:04:38;12.65;;;8.52;;
29196;SDS011;62796;42.654;23.316;2023-05-10T06:07:04;13.73;;;9.07;;
29196;SDS011;62796;42.654;23.316;2023-05-10T06:09:29;14.15;;;10.07;;
29196;SDS011;62796;42.654;23.316;2023-05-10T06:11:55;12.52;;;9.32;;
29196;SDS011;62796;42.654;23.316;2023-05-10T06:14:20;13.05;;;9.50;;
29196;SDS011;62796;42.654;23.316;2023-05-10T06:16:46;13.95;;;10.48;;
29196;SDS011;62796;42.654;23.316;2023-05-10T06:19:11;14.45;;;9.55;;
29196;SDS011;62796;42.654;23.316;2023-05-10T06:21:37;16.63;;;10.20;;
29196;SDS011;62796;42.654;23.316;2023-05-10T06:24:02;12.30;;;9.40;;
29196;SDS011;62796;42.654;23.316;2023-05-10T06:26:28;13.98;;;10.15;;
29196;SDS011;62796;42.654;23.316;2023-05-10T06:28:53;16.20;;;10.25;;
29196;SDS011;62796;42.654;23.316;2023-05-10T06:31:19;14.80;;;9.88;;
29196;SDS011;62796;42.654;23.316;2023-05-10T06:33:44;13.82;;;9.70;;
29196;SDS011;62796;42.654;23.316;2023-05-10T06:36:10;13.52;;;9.27;;
29196;SDS011;62796;42.654;23.316;2023-05-10T06:38:36;13.88;;;10.10;;
29196;SDS011;62796;42.654;23.316;2023-05-10T06:41:01;18.25;;;10.70;;
29196;SDS011;62796;42.654;23.316;2023-05-10T06:43:26;13.40;;;9.02;;
29196;SDS011;62796;42.654;23.316;2023-05-10T06:45:53;14.90;;;10.40;;
29196;SDS011;62796;42.654;23.316;2023-05-10T06:48:19;14.75;;;9.80;;
29196;SDS011;62796;42.654;23.316;2023-05-10T06:50:44;14.30;;;10.23;;
29196;SDS011;62796;42.654;23.316;2023-05-10T06:53:10;13.43;;;9.52;;
29196;SDS011;62796;42.654;23.316;2023-05-10T06:55:36;13.88;;;10.15;;
29196;SDS011;62796;42.654;23.316;2023-05-10T06:58:02;13.70;;;9.23;;
29196;SDS011;62796;42.654;23.316;2023-05-10T07:00:27;14.07;;;9.73;;
29196;SDS011;62796;42.654;23.316;2023-05-10T07:02:53;15.38;;;10.00;;
29196;SDS011;62796;42.654;23.316;2023-05-10T07:05:18;17.77;;;9.98;;
29196;SDS011;62796;42.654;23.316;2023-05-10T07:07:44;13.85;;;10.20;;
29196;SDS011;62796;42.654;23.316;2023-05-10T07:10:10;15.35;;;9.80;;
29196;SDS011;62796;42.654;23.316;2023-05-10T07:12:35;15.98;;;10.73;;
29196;SDS011;62796;42.654;23.316;2023-05-10T07:15:01;12.95;;;9.52;;
29196;SDS011;62796;42.654;23.316;2023-05-10T07:17:26;14.35;;;9.25;;
29196;SDS011;62796;42.654;23.316;2023-05-10T07:19:52;14.80;;;9.75;;
29196;SDS011;62796;42.654;23.316;2023-05-10T07:22:17;14.27;;;10.10;;
29196;SDS011;62796;42.654;23.316;2023-05-10T07:24:43;15.00;;;10.32;;
29196;SDS011;62796;42.654;23.316;2023-05-10T07:27:08;13.70;;;9.77;;
29196;SDS011;62796;42.654;23.316;2023-05-10T07:29:34;15.23;;;10.15;;
29196;SDS011;62796;42.654;23.316;2023-05-10T07:32:00;14.60;;;10.10;;
29196;SDS011;62796;42.654;23.316;2023-05-10T07:34:25;16.30;;;11.25;;
29196;SDS011;62796;42.654;23.316;2023-05-10T07:36:51;15.23;;;10.68;;
29196;SDS011;62796;42.654;23.316;2023-05-10T07:39:17;13.45;;;9.88;;
29196;SDS011;62796;42.654;23.316;2023-05-10T07:41:42;19.83;;;11.35;;
29196;SDS011;62796;42.654;23.316;2023-05-10T07:44:08;14.65;;;10.55;;
29196;SDS011;62796;42.654;23.316;2023-05-10T07:46:33;16.17;;;11.18;;
29196;SDS011;62796;42.654;23.316;2023-05-10T07:48:59;16.77;;;11.60;;
29196;SDS011;62796;42.654;23.316;2023-05-10T07:51:24;16.90;;;10.82;;
29196;SDS011;62796;42.654;23.316;2023-05-10T07:53:49;17.83;;;11.32;;
29196;SDS011;62796;42.654;23.316;2023-05-10T07:56:25;16.52;;;11.93;;
29196;SDS011;62796;42.654;23.316;2023-05-10T07:58:54;18.00;;;11.10;;
29196;SDS011;62796;42.654;23.316;2023-05-10T08:01:23;14.90;;;11.02;;
29196;SDS011;62796;42.654;23.316;2023-05-10T08:03:49;15.52;;;11.23;;
29196;SDS011;62796;42.654;23.316;2023-05-10T08:06:17;15.93;;;11.27;;
29196;SDS011;62796;42.654;23.316;2023-05-10T08:08:43;17.40;;;11.25;;
29196;SDS011;62796;42.654;23.316;2023-05-10T08:11:10;17.73;;;10.90;;
29196;SDS011;62796;42.654;23.316;2023-05-10T08:13:36;15.90;;;10.65;;
29196;SDS011;62796;42.654;23.316;2023-05-10T08:16:01;13.88;;;10.55;;
29196;SDS011;62796;42.654;23.316;2023-05-10T08:18:27;17.70;;;11.18;;
29196;SDS011;62796;42.654;23.316;2023-05-10T08:20:53;14.55;;;10.32;;
29196;SDS011;62796;42.654;23.316;2023-05-10T08:23:19;14.77;;;10.75;;
29196;SDS011;62796;42.654;23.316;2023-05-10T08:25:44;15.88;;;10.70;;
29196;SDS011;62796;42.654;23.316;2023-05-10T08:28:10;15.32;;;10.63;;
29196;SDS011;62796;42.654;23.316;2023-05-10T08:30:35;14.77;;;10.32;;
29196;SDS011;62796;42.654;23.316;2023-05-10T08:33:01;15.77;;;10.73;;
29196;SDS011;62796;42.654;23.316;2023-05-10T08:35:26;15.45;;;10.02;;
29196;SDS011;62796;42.654;23.316;2023-05-10T08:37:52;16.55;;;11.13;;
29196;SDS011;62796;42.654;23.316;2023-05-10T08:40:18;15.65;;;11.80;;
29196;SDS011;62796;42.654;23.316;2023-05-10T08:42:47;20.23;;;11.50;;
29196;SDS011;62796;42.654;23.316;2023-05-10T08:45:27;15.98;;;10.48;;
29196;SDS011;62796;42.654;23.316;2023-05-10T08:47:57;14.45;;;10.45;;
29196;SDS011;62796;42.654;23.316;2023-05-10T08:50:25;13.98;;;10.40;;
29196;SDS011;62796;42.654;23.316;2023-05-10T08:52:51;16.83;;;11.00;;
29196;SDS011;62796;42.654;23.316;2023-05-10T08:55:20;13.43;;;10.20;;
29196;SDS011;62796;42.654;23.316;2023-05-10T08:57:48;16.30;;;11.32;;
29196;SDS011;62796;42.654;23.316;2023-05-10T09:00:14;12.27;;;10.48;;
29196;SDS011;62796;42.654;23.316;2023-05-10T09:02:40;16.27;;;10.70;;
29196;SDS011;62796;42.654;23.316;2023-05-10T09:05:07;15.35;;;10.35;;
29196;SDS011;62796;42.654;23.316;2023-05-10T09:07:33;14.52;;;10.82;;
29196;SDS011;62796;42.654;23.316;2023-05-10T09:09:59;18.55;;;11.35;;
29196;SDS011;62796;42.654;23.316;2023-05-10T09:12:25;16.23;;;11.75;;
29196;SDS011;62796;42.654;23.316;2023-05-10T09:14:51;14.82;;;11.63;;
29196;SDS011;62796;42.654;23.316;2023-05-10T09:17:18;17.20;;;10.93;;
29196;SDS011;62796;42.654;23.316;2023-05-10T09:19:44;17.58;;;11.02;;
29196;SDS011;62796;42.654;23.316;2023-05-10T09:22:10;15.15;;;11.05;;
29196;SDS011;62796;42.654;23.316;2023-05-10T09:24:36;17.23;;;11.90;;
29196;SDS011;62796;42.654;23.316;2023-05-10T09:27:07;15.45;;;11.85;;
29196;SDS011;62796;42.654;23.316;2023-05-10T09:29:41;15.02;;;11.15;;
29196;SDS011;62796;42.654;23.316;2023-05-10T09:32:07;16.73;;;12.23;;
29196;SDS011;62796;42.654;23.316;2023-05-10T09:34:33;15.90;;;11.65;;
29196;SDS011;62796;42.654;23.316;2023-05-10T09:37:01;12.88;;;11.05;;
29196;SDS011;62796;42.654;23.316;2023-05-10T09:42:02;14.88;;;11.85;;
29196;SDS011;62796;42.654;23.316;2023-05-10T09:44:29;16.13;;;11.27;;
29196;SDS011;62796;42.654;23.316;2023-05-10T09:46:56;16.10;;;11.70;;
29196;SDS011;62796;42.654;23.316;2023-05-10T09:49:22;14.73;;;11.30;;
29196;SDS011;62796;42.654;23.316;2023-05-10T09:51:57;15.35;;;11.45;;
29196;SDS011;62796;42.654;23.316;2023-05-10T09:54:25;13.10;;;10.20;;
29196;SDS011;62796;42.654;23.316;2023-05-10T09:56:50;14.60;;;11.40;;
29196;SDS011;62796;42.654;23.316;2023-05-10T09:59:16;12.90;;;10.77;;
29196;SDS011;62796;42.654;23.316;2023-05-10T10:01:42;13.90;;;11.60;;
29196;SDS011;62796;42.654;23.316;2023-05-10T10:04:14;15.20;;;11.10;;
29196;SDS011;62796;42.654;23.316;2023-05-10T10:06:39;14.50;;;11.50;;
29196;SDS011;62796;42.654;23.316;2023-05-10T10:09:06;15.10;;;11.50;;
29196;SDS011;62796;42.654;23.316;2023-05-10T10:11:34;14.05;;;10.70;;
29196;SDS011;62796;42.654;23.316;2023-05-10T10:14:00;14.98;;;11.48;;
29196;SDS011;62796;42.654;23.316;2023-05-10T10:16:26;15.30;;;10.63;;
29196;SDS011;62796;42.654;23.316;2023-05-10T10:18:54;12.68;;;10.30;;
29196;SDS011;62796;42.654;23.316;2023-05-10T10:21:20;10.95;;;9.43;;
29196;SDS011;62796;42.654;23.316;2023-05-10T10:23:46;15.02;;;9.80;;
29196;SDS011;62796;42.654;23.316;2023-05-10T10:26:12;12.73;;;10.60;;
29196;SDS011;62796;42.654;23.316;2023-05-10T10:28:41;15.45;;;10.40;;
29196;SDS011;62796;42.654;23.316;2023-05-10T10:31:46;16.60;;;10.93;;
29196;SDS011;62796;42.654;23.316;2023-05-10T10:34:07;16.25;;;10.27;;
29196;SDS011;62796;42.654;23.316;2023-05-10T10:36:42;11.73;;;10.02;;
29196;SDS011;62796;42.654;23.316;2023-05-10T10:39:10;15.10;;;10.82;;
29196;SDS011;62796;42.654;23.316;2023-05-10T10:41:36;12.25;;;9.55;;
29196;SDS011;62796;42.654;23.316;2023-05-10T10:44:47;10.27;;;8.75;;
29196;SDS011;62796;42.654;23.316;2023-05-10T10:49:48;11.60;;;8.27;;
29196;SDS011;62796;42.654;23.316;2023-05-10T10:57:53;13.23;;;9.50;;
29196;SDS011;62796;42.654;23.316;2023-05-10T11:00:25;12.07;;;8.30;;
29196;SDS011;62796;42.654;23.316;2023-05-10T11:08:14;14.73;;;9.25;;
29196;SDS011;62796;42.654;23.316;2023-05-10T11:10:51;12.25;;;9.10;;
29196;SDS011;62796;42.654;23.316;2023-05-10T11:13:42;12.73;;;9.68;;
29196;SDS011;62796;42.654;23.316;2023-05-10T11:16:24;15.50;;;9.13;;
29196;SDS011;62796;42.654;23.316;2023-05-10T11:21:18;13.50;;;9.18;;
29196;SDS011;62796;42.654;23.316;2023-05-10T11:23:47;12.85;;;9.82;;
29196;SDS011;62796;42.654;23.316;2023-05-10T11:26:31;13.30;;;8.90;;
29196;SDS011;62796;42.654;23.316;2023-05-10T11:28:59;11.75;;;8.32;;
29196;SDS011;62796;42.654;23.316;2023-05-10T11:31:26;11.95;;;9.07;;
29196;SDS011;62796;42.654;23.316;2023-05-10T11:33:53;13.85;;;8.40;;
29196;SDS011;62796;42.654;23.316;2023-05-10T11:36:23;13.55;;;9.23;;
29196;SDS011;62796;42.654;23.316;2023-05-10T11:38:51;12.93;;;9.30;;
29196;SDS011;62796;42.654;23.316;2023-05-10T11:41:17;12.50;;;8.48;;
29196;SDS011;62796;42.654;23.316;2023-05-10T11:43:46;11.02;;;8.48;;
29196;SDS011;62796;42.654;23.316;2023-05-10T11:46:14;13.48;;;7.95;;
29196;SDS011;62796;42.654;23.316;2023-05-10T11:48:41;11.80;;;8.13;;
29196;SDS011;62796;42.654;23.316;2023-05-10T11:51:07;14.90;;;9.65;;
29196;SDS011;62796;42.654;23.316;2023-05-10T11:53:33;11.80;;;8.65;;
29196;SDS011;62796;42.654;23.316;2023-05-10T11:56:02;11.63;;;8.35;;
29196;SDS011;62796;42.654;23.316;2023-05-10T11:58:31;9.88;;;8.63;;
29196;SDS011;62796;42.654;23.316;2023-05-10T12:01:01;15.18;;;10.20;;
29196;SDS011;62796;42.654;23.316;2023-05-10T12:03:27;13.93;;;9.95;;
29196;SDS011;62796;42.654;23.316;2023-05-10T12:05:54;14.30;;;9.88;;
29196;SDS011;62796;42.654;23.316;2023-05-10T12:08:22;17.13;;;10.45;;
29196;SDS011;62796;42.654;23.316;2023-05-10T12:10:48;16.30;;;9.75;;
29196;SDS011;62796;42.654;23.316;2023-05-10T12:13:14;14.05;;;10.23;;
29196;SDS011;62796;42.654;23.316;2023-05-10T12:15:40;13.57;;;10.27;;
29196;SDS011;62796;42.654;23.316;2023-05-10T12:18:10;15.45;;;11.00;;
29196;SDS011;62796;42.654;23.316;2023-05-10T12:20:36;15.57;;;10.48;;
29196;SDS011;62796;42.654;23.316;2023-05-10T12:23:03;14.48;;;10.02;;
29196;SDS011;62796;42.654;23.316;2023-05-10T12:25:31;17.23;;;11.20;;
29196;SDS011;62796;42.654;23.316;2023-05-10T12:27:58;11.43;;;10.07;;
29196;SDS011;62796;42.654;23.316;2023-05-10T12:30:28;13.27;;;10.88;;
29196;SDS011;62796;42.654;23.316;2023-05-10T12:33:08;13.65;;;10.25;;
29196;SDS011;62796;42.654;23.316;2023-05-10T12:35:44;13.80;;;11.13;;
29196;SDS011;62796;42.654;23.316;2023-05-10T12:38:31;15.52;;;11.15;;
29196;SDS011;62796;42.654;23.316;2023-05-10T12:41:03;14.82;;;10.98;;
29196;SDS011;62796;42.654;23.316;2023-05-10T12:43:31;13.68;;;10.55;;
29196;SDS011;62796;42.654;23.316;2023-05-10T12:45:57;12.07;;;10.32;;
29196;SDS011;62796;42.654;23.316;2023-05-10T12:48:22;12.90;;;10.27;;
29196;SDS011;62796;42.654;23.316;2023-05-10T12:50:48;16.60;;;10.43;;
29196;SDS011;62796;42.654;23.316;2023-05-10T12:53:14;16.08;;;11.05;;
29196;SDS011;62796;42.654;23.316;2023-05-10T12:55:43;17.02;;;11.75;;
29196;SDS011;62796;42.654;23.316;2023-05-10T12:58:09;14.32;;;10.05;;
29196;SDS011;62796;42.654;23.316;2023-05-10T13:00:35;14.13;;;10.90;;
29196;SDS011;62796;42.654;23.316;2023-05-10T13:03:02;15.98;;;11.68;;
29196;SDS011;62796;42.654;23.316;2023-05-10T13:05:30;19.45;;;13.10;;
29196;SDS011;62796;42.654;23.316;2023-05-10T13:07:55;20.30;;;11.45;;
29196;SDS011;62796;42.654;23.316;2023-05-10T13:10:21;18.67;;;11.30;;
29196;SDS011;62796;42.654;23.316;2023-05-10T13:12:47;16.20;;;11.05;;
29196;SDS011;62796;42.654;23.316;2023-05-10T13:15:12;14.30;;;11.05;;
29196;SDS011;62796;42.654;23.316;2023-05-10T13:17:38;16.10;;;10.48;;
29196;SDS011;62796;42.654;23.316;2023-05-10T13:20:05;15.50;;;10.55;;
29196;SDS011;62796;42.654;23.316;2023-05-10T13:22:31;16.40;;;10.88;;
29196;SDS011;62796;42.654;23.316;2023-05-10T13:24:57;17.17;;;11.00;;
29196;SDS011;62796;42.654;23.316;2023-05-10T13:27:22;14.57;;;11.00;;
29196;SDS011;62796;42.654;23.316;2023-05-10T13:29:47;17.00;;;10.55;;
29196;SDS011;62796;42.654;23.316;2023-05-10T13:32:13;16.67;;;10.95;;
29196;SDS011;62796;42.654;23.316;2023-05-10T13:34:38;14.30;;;11.35;;
29196;SDS011;62796;42.654;23.316;2023-05-10T13:37:04;14.25;;;9.90;;
29196;SDS011;62796;42.654;23.316;2023-05-10T13:39:29;14.73;;;10.38;;
29196;SDS011;62796;42.654;23.316;2023-05-10T13:41:58;15.93;;;10.40;;
29196;SDS011;62796;42.654;23.316;2023-05-10T13:44:23;18.83;;;12.10;;
29196;SDS011;62796;42.654;23.316;2023-05-10T13:46:49;14.38;;;10.23;;
29196;SDS011;62796;42.654;23.316;2023-05-10T13:49:14;12.55;;;10.23;;
29196;SDS011;62796;42.654;23.316;2023-05-10T13:51:40;14.07;;;10.40;;
29196;SDS011;62796;42.654;23.316;2023-05-10T13:54:05;21.25;;;11.18;;
29196;SDS011;62796;42.654;23.316;2023-05-10T13:56:31;13.20;;;10.25;;
29196;SDS011;62796;42.654;23.316;2023-05-10T13:58:56;13.88;;;10.38;;
29196;SDS011;62796;42.654;23.316;2023-05-10T14:01:23;13.35;;;9.88;;
29196;SDS011;62796;42.654;23.316;2023-05-10T14:03:49;15.98;;;10.35;;
29196;SDS011;62796;42.654;23.316;2023-05-10T14:06:14;13.65;;;9.27;;
29196;SDS011;62796;42.654;23.316;2023-05-10T14:08:39;14.27;;;10.13;;
29196;SDS011;62796;42.654;23.316;2023-05-10T14:11:05;14.57;;;10.43;;
29196;SDS011;62796;42.654;23.316;2023-05-10T14:13:30;13.70;;;9.75;;
29196;SDS011;62796;42.654;23.316;2023-05-10T14:15:56;13.18;;;9.55;;
29196;SDS011;62796;42.654;23.316;2023-05-10T14:18:22;18.05;;;10.13;;
29196;SDS011;62796;42.654;23.316;2023-05-10T14:20:47;17.35;;;10.57;;
29196;SDS011;62796;42.654;23.316;2023-05-10T14:23:12;13.95;;;9.43;;
29196;SDS011;62796;42.654;23.316;2023-05-10T14:25:41;14.50;;;10.57;;
29196;SDS011;62796;42.654;23.316;2023-05-10T14:28:06;20.98;;;11.60;;
29196;SDS011;62796;42.654;23.316;2023-05-10T14:30:32;15.52;;;10.27;;
29196;SDS011;62796;42.654;23.316;2023-05-10T14:32:59;19.35;;;10.88;;
29196;SDS011;62796;42.654;23.316;2023-05-10T14:35:26;15.23;;;10.00;;
29196;SDS011;62796;42.654;23.316;2023-05-10T14:37:52;13.63;;;9.77;;
29196;SDS011;62796;42.654;23.316;2023-05-10T14:40:18;16.17;;;11.02;;
29196;SDS011;62796;42.654;23.316;2023-05-10T14:42:43;14.38;;;10.35;;
29196;SDS011;62796;42.654;23.316;2023-05-10T14:45:09;16.50;;;11.18;;
29196;SDS011;62796;42.654;23.316;2023-05-10T14:47:36;18.25;;;10.40;;
29196;SDS011;62796;42.654;23.316;2023-05-10T14:50:01;15.05;;;10.98;;
29196;SDS011;62796;42.654;23.316;2023-05-10T14:52:27;15.68;;;10.65;;
29196;SDS011;62796;42.654;23.316;2023-05-10T14:54:52;13.05;;;10.30;;